Time,TemperatureF,DewpointF,PressureIn,WindDirection,WindDirectionDegrees,WindSpeedMPH,WindSpeedGustMPH,Humidity,HourlyPrecipIn,Conditions,Clouds,dailyrainin,SoftwareType,DateUTC
2013-02-18 00:05:00,26.1,22.0,30.02,East,99,13.0,13.0,83,0.00,,,0.00,weatherlink.com 1.10,2013-02-18 07:05:00,
2013-02-18 00:19:00,26.3,22.0,30.03,ESE,117,10.0,19.0,83,0.00,,,0.00,weatherlink.com 1.10,2013-02-18 07:19:00,
2013-02-18 00:34:00,26.0,22.0,30.03,ESE,122,12.0,17.0,83,0.00,,,0.00,weatherlink.com 1.10,2013-02-18 07:34:00,
2013-02-18 00:48:00,26.2,22.0,30.04,ESE,115,15.0,18.0,85,0.00,,,0.00,weatherlink.com 1.10,2013-02-18 07:48:00,
2013-02-18 01:03:00,26.7,23.0,30.04,ESE,112,12.0,15.0,84,0.00,,,0.00,weatherlink.com 1.10,2013-02-18 08:03:00,
2013-02-18 01:17:00,26.4,22.0,30.05,ESE,105,8.0,12.0,84,0.00,,,0.00,weatherlink.com 1.10,2013-02-18 08:17:00,
2013-02-18 01:31:00,25.8,22.0,30.05,SE,136,6.0,11.0,86,0.00,,,0.00,weatherlink.com 1.10,2013-02-18 08:31:00,
2013-02-18 01:46:00,25.3,22.0,30.05,ESE,120,7.0,12.0,88,0.00,,,0.00,weatherlink.com 1.10,2013-02-18 08:46:00,
2013-02-18 02:01:00,25.2,22.0,30.06,ESE,119,5.0,10.0,89,0.00,,,0.00,weatherlink.com 1.10,2013-02-18 09:01:00,
2013-02-18 02:15:00,25.1,22.0,30.06,SE,139,5.0,15.0,89,0.00,,,0.00,weatherlink.com 1.10,2013-02-18 09:15:00,
2013-02-18 02:29:00,25.4,23.0,30.06,SE,136,8.0,12.0,91,0.00,,,0.00,weatherlink.com 1.10,2013-02-18 09:29:00,
2013-02-18 02:43:00,25.7,23.0,30.06,ESE,115,13.0,18.0,91,0.00,,,0.00,weatherlink.com 1.10,2013-02-18 09:43:00,
2013-02-18 02:58:00,25.7,23.0,30.06,SE,134,12.0,16.0,90,0.00,,,0.00,weatherlink.com 1.10,2013-02-18 09:58:00,
2013-02-18 03:12:00,25.3,22.0,30.06,SE,134,5.0,14.0,88,0.00,,,0.00,weatherlink.com 1.10,2013-02-18 10:12:00,
2013-02-18 03:27:00,24.7,22.0,30.07,ESE,110,6.0,13.0,89,0.00,,,0.00,weatherlink.com 1.10,2013-02-18 10:27:00,
2013-02-18 03:41:00,24.3,22.0,30.07,ESE,105,7.0,11.0,90,0.00,,,0.00,weatherlink.com 1.10,2013-02-18 10:41:00,
2013-02-18 03:56:00,24.1,22.0,30.08,ESE,108,5.0,8.0,90,0.00,,,0.00,weatherlink.com 1.10,2013-02-18 10:56:00,
2013-02-18 04:10:00,24.0,21.0,30.09,ESE,108,6.0,7.0,90,0.00,,,0.00,weatherlink.com 1.10,2013-02-18 11:10:00,
2013-02-18 04:25:00,23.8,21.0,30.09,ESE,112,4.0,8.0,90,0.00,,,0.00,weatherlink.com 1.10,2013-02-18 11:25:00,
2013-02-18 04:39:00,23.4,21.0,30.10,ENE,75,3.0,5.0,90,0.00,,,0.00,weatherlink.com 1.10,2013-02-18 11:39:00,
2013-02-18 04:54:00,23.6,21.0,30.10,East,86,9.0,10.0,91,0.00,,,0.00,weatherlink.com 1.10,2013-02-18 11:54:00,
2013-02-18 05:08:00,23.4,21.0,30.10,East,84,7.0,9.0,91,0.00,,,0.00,weatherlink.com 1.10,2013-02-18 12:08:00,
2013-02-18 05:23:00,23.3,21.0,30.11,East,79,5.0,7.0,91,0.00,,,0.00,weatherlink.com 1.10,2013-02-18 12:23:00,
2013-02-18 05:37:00,23.3,21.0,30.11,ENE,65,6.0,8.0,91,0.00,,,0.00,weatherlink.com 1.10,2013-02-18 12:37:00,
2013-02-18 05:52:00,23.2,21.0,30.11,ENE,67,4.0,6.0,90,0.00,,,0.00,weatherlink.com 1.10,2013-02-18 12:52:00,
2013-02-18 06:06:00,23.1,21.0,30.11,NE,54,4.0,5.0,91,0.00,,,0.00,weatherlink.com 1.10,2013-02-18 13:06:00,
2013-02-18 06:21:00,23.0,21.0,30.12,ENE,58,5.0,7.0,91,0.00,,,0.00,weatherlink.com 1.10,2013-02-18 13:21:00,
2013-02-18 06:35:00,22.9,21.0,30.12,ENE,57,5.0,5.0,91,0.00,,,0.00,weatherlink.com 1.10,2013-02-18 13:35:00,
2013-02-18 06:49:00,22.8,21.0,30.13,ENE,59,2.0,3.0,91,0.00,,,0.00,weatherlink.com 1.10,2013-02-18 13:49:00,
2013-02-18 07:04:00,22.7,20.0,30.13,NE,46,4.0,4.0,91,0.00,,,0.00,weatherlink.com 1.10,2013-02-18 14:04:00,
2013-02-18 07:19:00,22.7,20.0,30.14,NE,46,3.0,4.0,90,0.00,,,0.00,weatherlink.com 1.10,2013-02-18 14:19:00,
2013-02-18 07:33:00,22.8,20.0,30.15,NE,48,3.0,3.0,90,0.00,,,0.00,weatherlink.com 1.10,2013-02-18 14:33:00,
2013-02-18 07:47:00,22.9,20.0,30.15,NE,42,1.0,2.0,90,0.00,,,0.00,weatherlink.com 1.10,2013-02-18 14:47:00,
2013-02-18 08:02:00,22.7,20.0,30.15,NE,43,0.0,1.0,89,0.00,,,0.00,weatherlink.com 1.10,2013-02-18 15:02:00,
2013-02-18 08:17:00,22.9,20.0,30.16,NNE,33,2.0,3.0,89,0.00,,,0.00,weatherlink.com 1.10,2013-02-18 15:17:00,
2013-02-18 08:31:00,24.0,21.0,30.16,NNE,31,1.0,3.0,88,0.00,,,0.00,weatherlink.com 1.10,2013-02-18 15:31:00,
2013-02-18 08:45:00,24.6,21.0,30.16,NNE,19,2.0,3.0,87,0.00,,,0.00,weatherlink.com 1.10,2013-02-18 15:45:00,
2013-02-18 09:00:00,24.8,22.0,30.16,NE,44,2.0,3.0,88,0.00,,,0.00,weatherlink.com 1.10,2013-02-18 16:00:00,
2013-02-18 09:15:00,25.6,22.0,30.17,ENE,69,2.0,2.0,87,0.00,,,0.00,weatherlink.com 1.10,2013-02-18 16:15:00,
2013-02-18 09:29:00,25.7,22.0,30.18,ENE,72,4.0,4.0,86,0.00,,,0.00,weatherlink.com 1.10,2013-02-18 16:29:00,
2013-02-18 09:43:00,25.1,22.0,30.18,East,94,9.0,12.0,86,0.00,,,0.00,weatherlink.com 1.10,2013-02-18 16:43:00,
2013-02-18 09:58:00,24.9,21.0,30.18,East,85,14.0,22.0,84,0.00,,,0.00,weatherlink.com 1.10,2013-02-18 16:58:00,
2013-02-18 10:12:00,25.1,21.0,30.19,East,90,19.0,20.0,84,0.00,,,0.00,weatherlink.com 1.10,2013-02-18 17:12:00,
2013-02-18 10:27:00,24.7,20.0,30.20,East,84,24.0,25.0,83,0.00,,,0.00,weatherlink.com 1.10,2013-02-18 17:27:00,
2013-02-18 10:41:00,24.7,20.0,30.20,East,94,19.0,24.0,83,0.00,,,0.00,weatherlink.com 1.10,2013-02-18 17:41:00,
2013-02-18 10:56:00,24.9,21.0,30.20,East,90,20.0,24.0,84,0.00,,,0.00,weatherlink.com 1.10,2013-02-18 17:56:00,
2013-02-18 11:10:00,25.1,21.0,30.20,ESE,107,17.0,22.0,83,0.00,,,0.00,weatherlink.com 1.10,2013-02-18 18:10:00,
2013-02-18 11:25:00,25.0,21.0,30.21,SE,134,16.0,25.0,83,0.00,,,0.00,weatherlink.com 1.10,2013-02-18 18:25:00,
2013-02-18 11:39:00,25.1,21.0,30.21,East,86,17.0,22.0,84,0.00,,,0.00,weatherlink.com 1.10,2013-02-18 18:39:00,
2013-02-18 11:54:00,25.1,21.0,30.22,East,96,18.0,26.0,83,0.00,,,0.00,weatherlink.com 1.10,2013-02-18 18:54:00,
2013-02-18 12:08:00,25.2,20.0,30.22,East,98,16.0,20.0,82,0.00,,,0.00,weatherlink.com 1.10,2013-02-18 19:08:00,
2013-02-18 12:23:00,23.7,19.0,30.22,East,101,15.0,21.0,81,0.00,,,0.00,weatherlink.com 1.10,2013-02-18 19:23:00,
2013-02-18 12:37:00,23.3,18.0,30.21,East,91,15.0,21.0,80,0.00,,,0.00,weatherlink.com 1.10,2013-02-18 19:37:00,
2013-02-18 12:51:00,23.9,18.0,30.21,East,91,19.0,22.0,79,0.00,,,0.00,weatherlink.com 1.10,2013-02-18 19:51:00,
2013-02-18 13:06:00,22.7,18.0,30.22,East,99,21.0,22.0,82,0.00,,,0.00,weatherlink.com 1.10,2013-02-18 20:06:00,
2013-02-18 13:21:00,22.4,18.0,30.22,East,81,18.0,21.0,82,0.00,,,0.00,weatherlink.com 1.10,2013-02-18 20:21:00,
2013-02-18 13:35:00,22.3,17.0,30.22,East,84,17.0,22.0,81,0.00,,,0.00,weatherlink.com 1.10,2013-02-18 20:35:00,
2013-02-18 13:49:00,23.3,18.0,30.22,East,89,14.0,17.0,79,0.00,,,0.00,weatherlink.com 1.10,2013-02-18 20:49:00,
2013-02-18 14:04:00,23.6,18.0,30.22,East,100,11.0,16.0,79,0.00,,,0.00,weatherlink.com 1.10,2013-02-18 21:04:00,
2013-02-18 14:18:00,23.4,18.0,30.23,East,84,8.0,13.0,78,0.00,,,0.00,weatherlink.com 1.10,2013-02-18 21:18:00,
2013-02-18 14:32:00,22.8,17.0,30.23,East,84,7.0,10.0,79,0.00,,,0.00,weatherlink.com 1.10,2013-02-18 21:32:00,
2013-02-18 14:47:00,23.8,18.0,30.24,East,83,8.0,9.0,78,0.00,,,0.00,weatherlink.com 1.10,2013-02-18 21:47:00,
2013-02-18 15:01:00,23.8,18.0,30.23,East,85,8.0,12.0,77,0.00,,,0.00,weatherlink.com 1.10,2013-02-18 22:01:00,
2013-02-18 15:15:00,23.9,17.0,30.23,East,101,10.0,13.0,76,0.00,,,0.00,weatherlink.com 1.10,2013-02-18 22:15:00,
2013-02-18 15:30:00,23.7,17.0,30.24,ENE,68,6.0,9.0,76,0.00,,,0.00,weatherlink.com 1.10,2013-02-18 22:30:00,
2013-02-18 15:44:00,23.7,17.0,30.24,East,98,5.0,7.0,76,0.00,,,0.00,weatherlink.com 1.10,2013-02-18 22:44:00,
2013-02-18 15:59:00,23.9,17.0,30.25,East,84,5.0,6.0,75,0.00,,,0.00,weatherlink.com 1.10,2013-02-18 22:59:00,
2013-02-18 16:14:00,23.4,17.0,30.25,East,82,4.0,6.0,75,0.00,,,0.00,weatherlink.com 1.10,2013-02-18 23:14:00,
2013-02-18 16:28:00,23.2,16.0,30.25,East,86,3.0,4.0,75,0.00,,,0.00,weatherlink.com 1.10,2013-02-18 23:28:00,
2013-02-18 16:42:00,22.9,16.0,30.26,ENE,71,0.0,3.0,75,0.00,,,0.00,weatherlink.com 1.10,2013-02-18 23:42:00,
2013-02-18 16:57:00,23.1,16.0,30.25,ENE,72,2.0,2.0,75,0.00,,,0.00,weatherlink.com 1.10,2013-02-18 23:57:00,
2013-02-18 17:11:00,20.3,15.0,30.25,ENE,67,0.0,1.0,78,0.00,,,0.00,weatherlink.com 1.10,2013-02-19 00:11:00,
2013-02-18 17:26:00,19.9,15.0,30.26,NNE,31,1.0,2.0,82,0.00,,,0.00,weatherlink.com 1.10,2013-02-19 00:26:00,
2013-02-18 17:40:00,18.9,13.0,30.26,NNW,345,2.0,2.0,79,0.00,,,0.00,weatherlink.com 1.10,2013-02-19 00:40:00,
2013-02-18 17:55:00,16.2,11.0,30.26,NW,324,4.0,6.0,78,0.00,,,0.00,weatherlink.com 1.10,2013-02-19 00:55:00,
2013-02-18 18:09:00,13.7,10.0,30.26,NW,304,3.0,6.0,85,0.00,,,0.00,weatherlink.com 1.10,2013-02-19 01:09:00,
2013-02-18 18:24:00,13.5,9.0,30.26,NW,304,4.0,5.0,82,0.00,,,0.00,weatherlink.com 1.10,2013-02-19 01:24:00,
2013-02-18 18:38:00,11.4,8.0,30.26,WNW,287,7.0,7.0,84,0.00,,,0.00,weatherlink.com 1.10,2013-02-19 01:38:00,
2013-02-18 18:53:00,11.9,8.0,30.26,NW,315,6.0,7.0,85,0.00,,,0.00,weatherlink.com 1.10,2013-02-19 01:53:00,
2013-02-18 19:07:00,12.2,9.0,30.26,NNW,332,5.0,6.0,86,0.00,,,0.00,weatherlink.com 1.10,2013-02-19 02:07:00,
2013-02-18 19:22:00,11.9,8.0,30.26,NW,325,5.0,7.0,85,0.00,,,0.00,weatherlink.com 1.10,2013-02-19 02:22:00,
2013-02-18 19:36:00,12.5,9.0,30.25,NNW,333,5.0,6.0,85,0.00,,,0.00,weatherlink.com 1.10,2013-02-19 02:36:00,
2013-02-18 19:51:00,13.6,10.0,30.25,NNW,331,3.0,6.0,86,0.00,,,0.00,weatherlink.com 1.10,2013-02-19 02:51:00,
2013-02-18 20:20:00,14.5,11.0,30.25,NW,326,5.0,5.0,86,0.00,,,0.00,weatherlink.com 1.10,2013-02-19 03:20:00,
2013-02-18 20:34:00,14.5,11.0,30.26,NW,321,3.0,3.0,86,0.00,,,0.00,weatherlink.com 1.10,2013-02-19 03:34:00,
2013-02-18 20:48:00,14.5,11.0,30.25,NW,323,3.0,3.0,86,0.00,,,0.00,weatherlink.com 1.10,2013-02-19 03:48:00,
2013-02-18 21:03:00,14.2,11.0,30.25,NNW,333,3.0,4.0,86,0.00,,,0.00,weatherlink.com 1.10,2013-02-19 04:03:00,
2013-02-18 21:18:00,13.6,11.0,30.26,NW,320,4.0,5.0,89,0.00,,,0.00,weatherlink.com 1.10,2013-02-19 04:18:00,
2013-02-18 21:32:00,12.6,9.0,30.26,WNW,286,2.0,4.0,84,0.00,,,0.00,weatherlink.com 1.10,2013-02-19 04:32:00,
2013-02-18 21:46:00,11.8,8.0,30.26,NW,323,2.0,3.0,86,0.00,,,0.00,weatherlink.com 1.10,2013-02-19 04:46:00,
2013-02-18 22:01:00,12.1,9.0,30.26,NNW,327,3.0,4.0,86,0.00,,,0.00,weatherlink.com 1.10,2013-02-19 05:01:00,
2013-02-18 22:15:00,11.8,8.0,30.26,NNW,331,2.0,3.0,86,0.00,,,0.00,weatherlink.com 1.10,2013-02-19 05:15:00,
2013-02-18 22:30:00,11.8,9.0,30.26,WNW,301,2.0,3.0,88,0.00,,,0.00,weatherlink.com 1.10,2013-02-19 05:30:00,
2013-02-18 22:44:00,14.3,12.0,30.26,NW,311,4.0,6.0,89,0.00,,,0.00,weatherlink.com 1.10,2013-02-19 05:44:00,
2013-02-18 22:59:00,14.3,10.0,30.26,NW,321,3.0,4.0,83,0.00,,,0.00,weatherlink.com 1.10,2013-02-19 05:59:00,
2013-02-18 23:13:00,12.6,9.0,30.26,NW,324,4.0,4.0,85,0.00,,,0.00,weatherlink.com 1.10,2013-02-19 06:13:00,
2013-02-18 23:28:00,12.1,8.0,30.27,NNW,334,3.0,5.0,83,0.00,,,0.00,weatherlink.com 1.10,2013-02-19 06:28:00,
2013-02-18 23:42:00,11.4,8.0,30.27,NNW,328,3.0,4.0,85,0.00,,,0.00,weatherlink.com 1.10,2013-02-19 06:42:00,
2013-02-18 23:57:00,11.0,8.0,30.27,NW,316,3.0,5.0,87,0.00,,,0.00,weatherlink.com 1.10,2013-02-19 06:57:00,